Historyczne dane pomiarowe

Dodano dane terminowe – wersja testowa.

Dane z okresu 1951-2019

Wersja bazy: 1.34 [2019-03-16, lista zmian], aktualizacja planowana na 2019-04-15

Dane meteo z obszaru Polski uzyskane na podstawie danych udostępnionych przez Instytut Meteorologii i Gospodarki Wodnej – Państwowy Instytut Badawczy.

 

Wybierz Datę:    

       

TemperaturaWilgotnośćWiatrCiśnienieOpadyŚniegCzas trwania zjawisk
 Stacja t tx tn tng RH VA  wxwx mslp ppp RRR   cm mm wxwxwxwxwxwxwx
1987-08-14 11.8 19.6 4.0- 86.0- 6.7 0.3---- 1.0------------
1987-08-13 12.2 18.6 4.7- 76.8- 6.0 0.7---- 0.0------------
1987-08-12 11.9 18.1 5.2- 80.0- 6.7 0.7---- 0.0------------
1987-08-11 13.6 18.1 11.5- 79.3- 7.3 1.0---- 0.0------------
1987-08-10 15.8 20.0 13.9- 80.0- 6.7 0.7---- 7.2------------
1987-08-09 15.7 23.6 5.3- 73.3- 4.7 0.3---- 0.0------------
1987-08-08 14.4 20.1 8.2- 72.0- 1.3 0.7---- 0.0------------
1987-08-07 10.3 15.1 3.0- 85.3- 6.3 0.0---- 0.5------------
1987-08-06 11.4 15.6 8.2- 78.8- 6.7 1.7---- 0.5------------
1987-08-05 12.3 16.1 8.9- 88.0- 8.0 1.0---- 0.0------------
1987-08-04 14.7 19.6 10.2- 86.3- 8.0 0.0---- 0.3------------
1987-08-03 15.5 20.1 11.2- 80.3- 6.7 0.7---- 0.0------------
1987-08-02 15.2 19.6 12.4- 79.0- 6.7 1.0---- 5.0------------
1987-08-01 14.0 21.1 7.4- 86.3- 6.7 0.7---- 1.5------------
1987-07-31 16.1 21.3 12.5- 87.5- 8.0 0.7---- 4.6------------
1987-07-30 17.8 24.3 11.0- 78.3- 3.0 0.7---- 0.2------------
1987-07-29 13.8 19.1 8.8- 80.5- 7.3 0.3---- 0.0------------
1987-07-28 13.4 15.0 11.8- 86.3- 8.0 1.0---- 3.4------------
1987-07-27 12.6 17.3 8.5- 77.8- 8.0 1.3---- 0.3------------
1987-07-26 13.4 18.5 10.2- 97.3- 8.0 1.0---- 14.9------------
1987-07-25 17.7 25.1 14.1- 86.5- 6.0 0.7---- 0.6------------
1987-07-24 20.2 26.6 15.9- 84.0- 3.3 1.0---- 6.6------------
1987-07-23 19.3 27.6 11.0- 78.8- 3.0 0.0---- 11.2------------
1987-07-22 20.2 24.7 16.7- 75.3- 3.7 1.3---- 0.0------------
1987-07-21 20.4 25.7 13.7- 78.3- 4.0 0.7---- 0.0------------
1987-07-20 21.0 24.1 17.5- 78.0- 4.0 2.0---- 0.0------------
1987-07-19 22.2 28.3 15.9- 78.5- 4.7 1.3---- 1.0------------
1987-07-18 22.4 28.6 14.2- 75.5- 2.7 0.7---- 0.0------------
1987-07-17 23.4 30.1 14.1- 64.3- 5.3 2.7---- 0.0------------
1987-07-16 19.1 27.6 11.8- 80.8- 7.3 0.7---- 0.0------------
1987-07-15 17.2 23.7 7.8- 73.5- 0.7 1.0---- 0.0------------
1987-07-14 16.2 21.1 10.5- 73.3- 1.3 1.0---- 0.0------------
1987-07-13 18.8 25.5 13.4- 76.0- 4.0 1.7---- 0.0------------
1987-07-12 20.6 28.6 9.7- 64.3- 2.7 1.3---- 12.4------------
1987-07-11 15.9 24.0 7.5- 73.8- 1.3 0.7---- 0.0------------
1987-07-10 14.1 19.1 8.8- 80.0- 4.3 0.3---- 0.0------------
1987-07-09 15.8 24.8 13.5- 90.5- 8.0 0.3---- 6.6------------
1987-07-08 20.0 28.3 9.5- 67.8- 0.0 0.7---- 0.0------------
1987-07-07 17.8 26.3 6.7- 68.8- 0.0 0.3---- 0.0------------
1987-07-06 16.5 22.1 7.6- 70.3- 0.0 0.7---- 0.0------------
1987-07-05 15.3 20.6 13.9- 87.5- 8.0 0.7---- 1.2------------
1987-07-04 18.8 23.6 14.4- 73.5- 6.0 1.0---- 1.4------------
1987-07-03 18.3 22.1 15.2- 79.0- 8.0 0.3---- 0.0------------
1987-07-02 18.2 27.1 15.1- 90.0- 8.0 1.3---- 0.0------------
1987-07-01 23.6 32.1 15.9- 75.3- 0.7 0.7---- 0.0------------
1987-06-30 22.1 29.1 13.4- 75.5- 1.0 0.3---- 0.0------------
1987-06-29 20.9 25.1 15.9- 79.3- 4.0 0.7---- 0.0------------
1987-06-28 19.5 24.6 14.0- 72.8- 2.0 0.7---- 0.0------------
1987-06-27 15.9 21.6 10.3- 87.3- 8.0 1.7---- 0.0------------
1987-06-26 15.6 24.1 5.2- 73.0- 4.0 1.0---- 13.2------------
1987-06-25 14.2 18.0 11.5- 78.5- 6.0 1.7---- 0.0------------
1987-06-24 14.9 21.1 9.8- 78.8- 7.3 0.3---- 1.1------------
1987-06-23 16.0 20.3 12.9- 79.5- 6.7 0.7---- 0.0------------
1987-06-22 14.3 19.6 11.0- 89.5- 8.0 0.3---- 3.2------------
1987-06-21 14.5 22.1 7.8- 75.8- 4.7 0.3---- 1.5------------
1987-06-20 14.4 20.7 5.8- 66.3- 5.7 1.3---- 0.0------------
1987-06-19 12.2 17.6 5.5- 67.8- 2.3 0.7---- 0.0------------
1987-06-18 9.5 15.6 4.2- 80.8- 6.0 1.0---- 0.8------------
1987-06-17 9.6 13.1 6.5- 87.0- 8.0 0.7---- 2.0------------
1987-06-16 13.8 26.8 11.1- 79.8- 8.0 1.0---- 12.3------------
1123.8 ms

 

Źródłem pochodzenia danych jest Instytut Meteorologii i Gospodarki Wodnej – Państwowy Instytut Badawczy. Dane Instytutu Meteorologii i Gospodarki Wodnej – Państwowego Instytutu Badawczego zostały przetworzone.

Dane źródłowe można odnaleźć na stronie https://dane.imgw.pl